Sacramento, California
Traffic Map
Current Weather Conditions
Sacramento, California
Clear
Clear
68°
Feels Like: 68°
Wind Chill: 68° Ceiling: Unl
Heat Index: 68° Visibility: 10mi
Dew Point: 53° Wind: 5mph
Humidity: 59% Direction: 190° (S)
Pressure: 29.93in Gusts: 0mph
Raw Report DataKSAC 210653Z AUTO 19004KT 10SM CLR 20/12 A2993 RMK AO2 SLP134 T02000117
Traffic Incident Summary
Active as of:
Severity:
Category:
InformationThere was an issue retrieving the traffic information for this location. Please try a different location or try again shortly.
Advertisements
Track Severe Weather on mobile